Hc Nadja Maria — V2AV4 — position and weather

sailwx.info

Track history (hours):
 
Tides and Currents Weather Stations Pressure Air Temp Water Temp Dewpoint Dewpoint Depression Visibility Wind Speed Wind Dir Waves Ship Positions

Hc Nadja Maria

Last reported at 2014-Nov-30 20:07 UTC. Time now 2014-Dec-19 08:42 UTC.
Position N 27°00' W 079°52'.
Warning: this ship's position is 18 days out of date.

Length 130 m; draft 7.7 m.

Type: Cargo ship. MMSI: 304204000.

Date/timePositionNaut miles runAvg speedWind from/ knotsBaromVisibWave heightAir tempDewpointWater temp
2014-Nov-30 20:07N 27°00' W 079°52'814.3
2014-Nov-30 19:33N 26°52' W 079°53'1414.0
2014-Nov-30 18:33N 26°38' W 079°54'1313.2
2014-Nov-30 17:33N 26°25' W 079°55'1312.7
2014-Nov-30 16:33N 26°13' W 079°56'1312.6
2014-Nov-30 15:33N 25°60' W 079°57'1212.3
2014-Nov-30 14:33N 25°48' W 079°58'1312.5
2014-Nov-30 13:33N 25°35' W 079°59'  
2014-Nov-27 15:06N 29°56' W 089°60'0 0.0
2014-Nov-27 13:33N 29°56' W 089°60'0 0.0
2014-Nov-27 09:33N 29°56' W 089°60'0 0.0
2014-Nov-26 14:30N 29°56' W 089°60'  
Track history (hours):
 
Tides and Currents Weather Stations Pressure Air Temp Water Temp Dewpoint Dewpoint Depression Visibility Wind Speed Wind Dir Waves Ship Positions

Hc Nadja Maria

Last reported at 2014-Nov-30 20:07 UTC. Time now 2014-Dec-19 08:42 UTC.
Position N 27°00' W 079°52'.
Warning: this ship's position is 18 days out of date.

Length 130 m; draft 7.7 m.

Type: Cargo ship. MMSI: 304204000.

Date/timePositionNaut miles runAvg speedWind from/ knotsBaromVisibWave heightAir tempDewpointWater temp
2014-Nov-30 20:07N 27°00' W 079°52'814.3
2014-Nov-30 19:33N 26°52' W 079°53'1414.0
2014-Nov-30 18:33N 26°38' W 079°54'1313.2
2014-Nov-30 17:33N 26°25' W 079°55'1312.7
2014-Nov-30 16:33N 26°13' W 079°56'1312.6
2014-Nov-30 15:33N 25°60' W 079°57'1212.3
2014-Nov-30 14:33N 25°48' W 079°58'1312.5
2014-Nov-30 13:33N 25°35' W 079°59'  
2014-Nov-27 15:06N 29°56' W 089°60'0 0.0
2014-Nov-27 13:33N 29°56' W 089°60'0 0.0
2014-Nov-27 09:33N 29°56' W 089°60'0 0.0
2014-Nov-26 14:30N 29°56' W 089°60'  

Dump ship's entire track history